sensor_id;sensor_type;location;lat;lon;timestamp;P1;durP1;ratioP1;P2;durP2;ratioP2
23496;SDS011;11925;48.122;11.560;2023-09-19T00:00:38;2.00;;;0.80;;
23496;SDS011;11925;48.122;11.560;2023-09-19T00:03:07;1.75;;;0.80;;
23496;SDS011;11925;48.122;11.560;2023-09-19T00:05:37;2.97;;;0.60;;
23496;SDS011;11925;48.122;11.560;2023-09-19T00:08:06;2.67;;;1.00;;
23496;SDS011;11925;48.122;11.560;2023-09-19T00:10:34;1.70;;;0.75;;
23496;SDS011;11925;48.122;11.560;2023-09-19T00:13:04;2.28;;;0.82;;
23496;SDS011;11925;48.122;11.560;2023-09-19T00:15:36;2.05;;;0.70;;
23496;SDS011;11925;48.122;11.560;2023-09-19T00:18:05;1.80;;;0.80;;
23496;SDS011;11925;48.122;11.560;2023-09-19T00:20:35;3.45;;;0.95;;
23496;SDS011;11925;48.122;11.560;2023-09-19T00:23:05;1.30;;;0.65;;
23496;SDS011;11925;48.122;11.560;2023-09-19T00:25:35;2.17;;;0.90;;
23496;SDS011;11925;48.122;11.560;2023-09-19T00:28:05;2.88;;;0.77;;
23496;SDS011;11925;48.122;11.560;2023-09-19T00:30:34;2.58;;;0.90;;
23496;SDS011;11925;48.122;11.560;2023-09-19T00:33:05;2.43;;;0.80;;
23496;SDS011;11925;48.122;11.560;2023-09-19T00:35:34;2.58;;;0.80;;
23496;SDS011;11925;48.122;11.560;2023-09-19T00:38:03;2.47;;;0.90;;
23496;SDS011;11925;48.122;11.560;2023-09-19T00:40:33;3.15;;;0.93;;
23496;SDS011;11925;48.122;11.560;2023-09-19T00:43:02;2.03;;;0.88;;
23496;SDS011;11925;48.122;11.560;2023-09-19T00:45:32;3.15;;;1.00;;
23496;SDS011;11925;48.122;11.560;2023-09-19T00:48:05;1.40;;;0.60;;
23496;SDS011;11925;48.122;11.560;2023-09-19T00:50:35;3.40;;;0.70;;
23496;SDS011;11925;48.122;11.560;2023-09-19T00:53:06;2.75;;;0.70;;
23496;SDS011;11925;48.122;11.560;2023-09-19T00:55:36;1.85;;;0.70;;
23496;SDS011;11925;48.122;11.560;2023-09-19T00:58:06;1.25;;;0.60;;
23496;SDS011;11925;48.122;11.560;2023-09-19T01:00:37;2.55;;;0.70;;
23496;SDS011;11925;48.122;11.560;2023-09-19T01:03:05;1.85;;;0.95;;
23496;SDS011;11925;48.122;11.560;2023-09-19T01:05:34;1.38;;;0.80;;
23496;SDS011;11925;48.122;11.560;2023-09-19T01:08:03;1.90;;;0.70;;
23496;SDS011;11925;48.122;11.560;2023-09-19T01:10:33;2.17;;;0.75;;
23496;SDS011;11925;48.122;11.560;2023-09-19T01:13:03;1.38;;;0.80;;
23496;SDS011;11925;48.122;11.560;2023-09-19T01:15:40;2.83;;;0.90;;
23496;SDS011;11925;48.122;11.560;2023-09-19T01:18:21;1.70;;;0.88;;
23496;SDS011;11925;48.122;11.560;2023-09-19T01:20:57;1.58;;;0.70;;
23496;SDS011;11925;48.122;11.560;2023-09-19T01:23:40;1.80;;;0.80;;
23496;SDS011;11925;48.122;11.560;2023-09-19T01:26:42;3.60;;;0.88;;
23496;SDS011;11925;48.122;11.560;2023-09-19T01:29:26;2.33;;;0.80;;
23496;SDS011;11925;48.122;11.560;2023-09-19T01:32:08;2.35;;;0.85;;
23496;SDS011;11925;48.122;11.560;2023-09-19T01:34:43;1.65;;;0.75;;
23496;SDS011;11925;48.122;11.560;2023-09-19T01:37:15;2.80;;;0.70;;
23496;SDS011;11925;48.122;11.560;2023-09-19T01:39:47;3.05;;;0.85;;
23496;SDS011;11925;48.122;11.560;2023-09-19T01:42:21;2.40;;;0.85;;
23496;SDS011;11925;48.122;11.560;2023-09-19T01:45:01;3.78;;;0.90;;
23496;SDS011;11925;48.122;11.560;2023-09-19T01:47:35;2.33;;;1.20;;
23496;SDS011;11925;48.122;11.560;2023-09-19T01:50:12;1.52;;;0.82;;
23496;SDS011;11925;48.122;11.560;2023-09-19T01:52:47;2.97;;;1.23;;
23496;SDS011;11925;48.122;11.560;2023-09-19T01:55:20;3.00;;;0.80;;
23496;SDS011;11925;48.122;11.560;2023-09-19T01:57:51;2.63;;;0.98;;
23496;SDS011;11925;48.122;11.560;2023-09-19T02:00:31;3.05;;;0.70;;
23496;SDS011;11925;48.122;11.560;2023-09-19T02:03:05;3.40;;;1.13;;
23496;SDS011;11925;48.122;11.560;2023-09-19T02:05:34;1.67;;;0.80;;
23496;SDS011;11925;48.122;11.560;2023-09-19T02:08:03;2.45;;;0.95;;
23496;SDS011;11925;48.122;11.560;2023-09-19T02:10:32;2.38;;;1.15;;
23496;SDS011;11925;48.122;11.560;2023-09-19T02:13:01;1.88;;;0.73;;
23496;SDS011;11925;48.122;11.560;2023-09-19T02:15:32;2.60;;;1.13;;
23496;SDS011;11925;48.122;11.560;2023-09-19T02:18:01;2.78;;;0.82;;
23496;SDS011;11925;48.122;11.560;2023-09-19T02:20:31;1.70;;;0.80;;
23496;SDS011;11925;48.122;11.560;2023-09-19T02:23:00;2.25;;;0.80;;
23496;SDS011;11925;48.122;11.560;2023-09-19T02:25:29;2.25;;;0.70;;
23496;SDS011;11925;48.122;11.560;2023-09-19T02:27:59;3.83;;;0.90;;
23496;SDS011;11925;48.122;11.560;2023-09-19T02:30:30;5.93;;;0.90;;
23496;SDS011;11925;48.122;11.560;2023-09-19T02:32:58;3.97;;;0.88;;
23496;SDS011;11925;48.122;11.560;2023-09-19T02:35:29;3.75;;;1.00;;
23496;SDS011;11925;48.122;11.560;2023-09-19T02:38:02;1.98;;;0.90;;
23496;SDS011;11925;48.122;11.560;2023-09-19T02:40:33;2.70;;;1.10;;
23496;SDS011;11925;48.122;11.560;2023-09-19T02:43:03;2.35;;;0.73;;
23496;SDS011;11925;48.122;11.560;2023-09-19T02:45:31;1.60;;;0.55;;
23496;SDS011;11925;48.122;11.560;2023-09-19T02:48:01;1.60;;;0.80;;
23496;SDS011;11925;48.122;11.560;2023-09-19T02:50:32;2.00;;;0.90;;
23496;SDS011;11925;48.122;11.560;2023-09-19T02:53:01;2.25;;;1.02;;
23496;SDS011;11925;48.122;11.560;2023-09-19T02:55:31;2.40;;;0.73;;
23496;SDS011;11925;48.122;11.560;2023-09-19T02:58:00;4.60;;;0.90;;
23496;SDS011;11925;48.122;11.560;2023-09-19T03:00:29;3.30;;;0.80;;
23496;SDS011;11925;48.122;11.560;2023-09-19T03:02:58;1.80;;;0.70;;
23496;SDS011;11925;48.122;11.560;2023-09-19T03:05:27;2.45;;;1.00;;
23496;SDS011;11925;48.122;11.560;2023-09-19T03:07:58;2.38;;;0.90;;
23496;SDS011;11925;48.122;11.560;2023-09-19T03:10:29;1.35;;;0.80;;
23496;SDS011;11925;48.122;11.560;2023-09-19T03:12:58;1.52;;;0.77;;
23496;SDS011;11925;48.122;11.560;2023-09-19T03:15:27;1.77;;;0.88;;
23496;SDS011;11925;48.122;11.560;2023-09-19T03:17:56;2.97;;;0.80;;
23496;SDS011;11925;48.122;11.560;2023-09-19T03:20:26;1.40;;;0.82;;
23496;SDS011;11925;48.122;11.560;2023-09-19T03:22:54;3.20;;;1.02;;
23496;SDS011;11925;48.122;11.560;2023-09-19T03:25:25;3.60;;;1.30;;
23496;SDS011;11925;48.122;11.560;2023-09-19T03:27:56;1.58;;;0.93;;
23496;SDS011;11925;48.122;11.560;2023-09-19T03:30:25;2.38;;;0.88;;
23496;SDS011;11925;48.122;11.560;2023-09-19T03:32:53;2.63;;;1.13;;
23496;SDS011;11925;48.122;11.560;2023-09-19T03:35:22;1.75;;;0.77;;
23496;SDS011;11925;48.122;11.560;2023-09-19T03:37:50;1.65;;;0.93;;
23496;SDS011;11925;48.122;11.560;2023-09-19T03:40:19;2.75;;;0.98;;
23496;SDS011;11925;48.122;11.560;2023-09-19T03:42:50;1.65;;;0.90;;
23496;SDS011;11925;48.122;11.560;2023-09-19T03:45:19;1.45;;;0.77;;
23496;SDS011;11925;48.122;11.560;2023-09-19T03:50:21;2.23;;;0.67;;
23496;SDS011;11925;48.122;11.560;2023-09-19T03:52:55;1.45;;;0.70;;
23496;SDS011;11925;48.122;11.560;2023-09-19T03:55:24;2.58;;;1.10;;
23496;SDS011;11925;48.122;11.560;2023-09-19T03:57:54;2.55;;;0.98;;
23496;SDS011;11925;48.122;11.560;2023-09-19T04:00:23;2.33;;;0.90;;
23496;SDS011;11925;48.122;11.560;2023-09-19T04:02:52;2.20;;;0.80;;
23496;SDS011;11925;48.122;11.560;2023-09-19T04:05:23;1.95;;;0.80;;
23496;SDS011;11925;48.122;11.560;2023-09-19T04:07:51;1.80;;;0.80;;
23496;SDS011;11925;48.122;11.560;2023-09-19T04:10:20;1.92;;;1.00;;
23496;SDS011;11925;48.122;11.560;2023-09-19T04:12:51;2.90;;;0.90;;
23496;SDS011;11925;48.122;11.560;2023-09-19T04:15:22;3.40;;;1.10;;
23496;SDS011;11925;48.122;11.560;2023-09-19T04:17:53;1.77;;;0.80;;
23496;SDS011;11925;48.122;11.560;2023-09-19T04:20:22;1.80;;;0.88;;
23496;SDS011;11925;48.122;11.560;2023-09-19T04:22:50;2.13;;;0.88;;
23496;SDS011;11925;48.122;11.560;2023-09-19T04:25:19;1.38;;;0.82;;
23496;SDS011;11925;48.122;11.560;2023-09-19T04:27:48;3.03;;;1.13;;
23496;SDS011;11925;48.122;11.560;2023-09-19T04:30:17;1.42;;;0.80;;
23496;SDS011;11925;48.122;11.560;2023-09-19T04:32:49;2.20;;;0.87;;
23496;SDS011;11925;48.122;11.560;2023-09-19T04:35:18;2.33;;;0.90;;
23496;SDS011;11925;48.122;11.560;2023-09-19T04:37:47;1.40;;;0.80;;
23496;SDS011;11925;48.122;11.560;2023-09-19T04:40:16;2.20;;;0.90;;
23496;SDS011;11925;48.122;11.560;2023-09-19T04:42:50;2.88;;;0.90;;
23496;SDS011;11925;48.122;11.560;2023-09-19T04:45:22;2.20;;;0.80;;
23496;SDS011;11925;48.122;11.560;2023-09-19T04:47:52;1.67;;;0.75;;
23496;SDS011;11925;48.122;11.560;2023-09-19T04:50:21;2.58;;;1.00;;
23496;SDS011;11925;48.122;11.560;2023-09-19T04:52:51;1.15;;;0.80;;
23496;SDS011;11925;48.122;11.560;2023-09-19T04:55:20;1.67;;;0.82;;
23496;SDS011;11925;48.122;11.560;2023-09-19T04:57:50;3.65;;;1.08;;
23496;SDS011;11925;48.122;11.560;2023-09-19T05:00:19;1.58;;;0.70;;
23496;SDS011;11925;48.122;11.560;2023-09-19T05:02:53;2.00;;;0.80;;
23496;SDS011;11925;48.122;11.560;2023-09-19T05:05:24;1.42;;;0.90;;
23496;SDS011;11925;48.122;11.560;2023-09-19T05:07:53;4.10;;;1.20;;
23496;SDS011;11925;48.122;11.560;2023-09-19T05:10:22;3.13;;;0.90;;
23496;SDS011;11925;48.122;11.560;2023-09-19T05:12:52;1.30;;;0.60;;
23496;SDS011;11925;48.122;11.560;2023-09-19T05:15:21;1.95;;;0.90;;
23496;SDS011;11925;48.122;11.560;2023-09-19T05:17:50;1.67;;;0.93;;
23496;SDS011;11925;48.122;11.560;2023-09-19T05:20:25;1.63;;;0.77;;
23496;SDS011;11925;48.122;11.560;2023-09-19T05:23:02;1.70;;;0.85;;
23496;SDS011;11925;48.122;11.560;2023-09-19T05:25:34;1.73;;;0.88;;
23496;SDS011;11925;48.122;11.560;2023-09-19T05:28:05;3.15;;;0.70;;
23496;SDS011;11925;48.122;11.560;2023-09-19T05:30:35;2.10;;;0.93;;
23496;SDS011;11925;48.122;11.560;2023-09-19T05:33:05;1.23;;;0.70;;
23496;SDS011;11925;48.122;11.560;2023-09-19T05:35:35;2.50;;;0.93;;
23496;SDS011;11925;48.122;11.560;2023-09-19T05:38:06;1.83;;;0.80;;
23496;SDS011;11925;48.122;11.560;2023-09-19T05:40:36;1.60;;;0.60;;
23496;SDS011;11925;48.122;11.560;2023-09-19T05:43:07;1.50;;;0.70;;
23496;SDS011;11925;48.122;11.560;2023-09-19T05:45:36;2.17;;;0.82;;
23496;SDS011;11925;48.122;11.560;2023-09-19T05:48:08;1.45;;;0.90;;
23496;SDS011;11925;48.122;11.560;2023-09-19T05:50:39;1.90;;;0.85;;
23496;SDS011;11925;48.122;11.560;2023-09-19T05:53:08;1.55;;;0.88;;
23496;SDS011;11925;48.122;11.560;2023-09-19T05:55:39;2.08;;;0.70;;
23496;SDS011;11925;48.122;11.560;2023-09-19T05:58:07;2.75;;;0.98;;
23496;SDS011;11925;48.122;11.560;2023-09-19T06:00:36;3.20;;;0.95;;
23496;SDS011;11925;48.122;11.560;2023-09-19T06:03:06;3.05;;;1.30;;
23496;SDS011;11925;48.122;11.560;2023-09-19T06:05:34;2.20;;;1.15;;
23496;SDS011;11925;48.122;11.560;2023-09-19T06:08:08;4.10;;;1.10;;
23496;SDS011;11925;48.122;11.560;2023-09-19T06:10:37;3.72;;;1.20;;
23496;SDS011;11925;48.122;11.560;2023-09-19T06:13:06;2.25;;;0.85;;
23496;SDS011;11925;48.122;11.560;2023-09-19T06:15:36;2.95;;;1.10;;
23496;SDS011;11925;48.122;11.560;2023-09-19T06:18:10;2.33;;;1.10;;
23496;SDS011;11925;48.122;11.560;2023-09-19T06:20:42;1.50;;;1.00;;
23496;SDS011;11925;48.122;11.560;2023-09-19T06:23:13;2.08;;;0.80;;
23496;SDS011;11925;48.122;11.560;2023-09-19T06:25:41;1.70;;;0.80;;
23496;SDS011;11925;48.122;11.560;2023-09-19T06:28:10;2.83;;;1.05;;
23496;SDS011;11925;48.122;11.560;2023-09-19T06:30:39;3.08;;;0.80;;
23496;SDS011;11925;48.122;11.560;2023-09-19T06:33:09;2.30;;;1.02;;
23496;SDS011;11925;48.122;11.560;2023-09-19T06:35:42;2.25;;;0.90;;
23496;SDS011;11925;48.122;11.560;2023-09-19T06:38:15;3.97;;;0.82;;
23496;SDS011;11925;48.122;11.560;2023-09-19T06:40:45;2.05;;;0.90;;
23496;SDS011;11925;48.122;11.560;2023-09-19T06:43:14;1.83;;;0.80;;
23496;SDS011;11925;48.122;11.560;2023-09-19T06:45:48;1.98;;;0.75;;
23496;SDS011;11925;48.122;11.560;2023-09-19T06:48:32;0.95;;;0.60;;
23496;SDS011;11925;48.122;11.560;2023-09-19T06:51:06;2.03;;;0.70;;
23496;SDS011;11925;48.122;11.560;2023-09-19T06:53:37;2.83;;;0.80;;
23496;SDS011;11925;48.122;11.560;2023-09-19T06:56:07;1.17;;;0.63;;
23496;SDS011;11925;48.122;11.560;2023-09-19T06:58:35;1.50;;;0.70;;
23496;SDS011;11925;48.122;11.560;2023-09-19T07:01:04;1.75;;;0.80;;
23496;SDS011;11925;48.122;11.560;2023-09-19T07:03:33;1.83;;;1.05;;
23496;SDS011;11925;48.122;11.560;2023-09-19T07:06:03;2.67;;;0.75;;
23496;SDS011;11925;48.122;11.560;2023-09-19T07:08:32;1.67;;;0.70;;
23496;SDS011;11925;48.122;11.560;2023-09-19T07:11:02;2.28;;;0.80;;
23496;SDS011;11925;48.122;11.560;2023-09-19T07:13:32;1.48;;;0.70;;
23496;SDS011;11925;48.122;11.560;2023-09-19T07:16:01;2.88;;;0.80;;
23496;SDS011;11925;48.122;11.560;2023-09-19T07:18:30;1.33;;;0.60;;
23496;SDS011;11925;48.122;11.560;2023-09-19T07:20:59;1.73;;;0.70;;
23496;SDS011;11925;48.122;11.560;2023-09-19T07:23:31;1.58;;;0.50;;
23496;SDS011;11925;48.122;11.560;2023-09-19T07:26:02;3.95;;;1.00;;
23496;SDS011;11925;48.122;11.560;2023-09-19T07:28:32;1.80;;;0.60;;
23496;SDS011;11925;48.122;11.560;2023-09-19T07:31:02;1.80;;;0.70;;
23496;SDS011;11925;48.122;11.560;2023-09-19T07:33:31;2.25;;;0.70;;
23496;SDS011;11925;48.122;11.560;2023-09-19T07:36:00;3.70;;;1.50;;
23496;SDS011;11925;48.122;11.560;2023-09-19T07:38:28;2.15;;;0.70;;
23496;SDS011;11925;48.122;11.560;2023-09-19T07:40:59;1.35;;;0.80;;
23496;SDS011;11925;48.122;11.560;2023-09-19T07:46:02;2.42;;;0.70;;
23496;SDS011;11925;48.122;11.560;2023-09-19T07:48:32;1.60;;;0.73;;
23496;SDS011;11925;48.122;11.560;2023-09-19T07:51:02;2.03;;;0.70;;
23496;SDS011;11925;48.122;11.560;2023-09-19T07:53:31;1.30;;;0.75;;
23496;SDS011;11925;48.122;11.560;2023-09-19T07:56:01;1.10;;;0.50;;
23496;SDS011;11925;48.122;11.560;2023-09-19T07:58:30;1.70;;;0.63;;
23496;SDS011;11925;48.122;11.560;2023-09-19T08:01:05;1.17;;;0.70;;
23496;SDS011;11925;48.122;11.560;2023-09-19T08:03:34;2.15;;;0.73;;
23496;SDS011;11925;48.122;11.560;2023-09-19T08:06:07;1.63;;;0.70;;
23496;SDS011;11925;48.122;11.560;2023-09-19T08:08:36;1.10;;;0.60;;
23496;SDS011;11925;48.122;11.560;2023-09-19T08:11:05;1.00;;;0.60;;
23496;SDS011;11925;48.122;11.560;2023-09-19T08:13:38;1.10;;;0.80;;
23496;SDS011;11925;48.122;11.560;2023-09-19T08:16:11;3.42;;;0.90;;
23496;SDS011;11925;48.122;11.560;2023-09-19T08:18:41;1.88;;;0.65;;
23496;SDS011;11925;48.122;11.560;2023-09-19T08:21:11;3.65;;;1.00;;
23496;SDS011;11925;48.122;11.560;2023-09-19T08:23:43;3.05;;;0.75;;
23496;SDS011;11925;48.122;11.560;2023-09-19T08:26:12;4.35;;;0.88;;
23496;SDS011;11925;48.122;11.560;2023-09-19T08:28:40;1.75;;;0.80;;
23496;SDS011;11925;48.122;11.560;2023-09-19T08:31:09;3.05;;;0.73;;
23496;SDS011;11925;48.122;11.560;2023-09-19T08:33:39;3.22;;;0.80;;
23496;SDS011;11925;48.122;11.560;2023-09-19T08:36:09;3.42;;;0.80;;
23496;SDS011;11925;48.122;11.560;2023-09-19T08:41:09;3.78;;;0.70;;
23496;SDS011;11925;48.122;11.560;2023-09-19T08:43:38;2.28;;;0.90;;
23496;SDS011;11925;48.122;11.560;2023-09-19T08:46:09;2.25;;;0.77;;
23496;SDS011;11925;48.122;11.560;2023-09-19T08:48:42;1.40;;;0.70;;
23496;SDS011;11925;48.122;11.560;2023-09-19T08:51:18;2.55;;;0.77;;
23496;SDS011;11925;48.122;11.560;2023-09-19T08:53:49;2.65;;;1.02;;
23496;SDS011;11925;48.122;11.560;2023-09-19T08:56:19;1.98;;;0.95;;
23496;SDS011;11925;48.122;11.560;2023-09-19T08:58:50;1.88;;;0.63;;
23496;SDS011;11925;48.122;11.560;2023-09-19T09:01:20;1.38;;;0.70;;
23496;SDS011;11925;48.122;11.560;2023-09-19T09:03:54;1.73;;;0.80;;
23496;SDS011;11925;48.122;11.560;2023-09-19T09:06:23;1.60;;;0.73;;
23496;SDS011;11925;48.122;11.560;2023-09-19T09:08:52;1.60;;;0.80;;
23496;SDS011;11925;48.122;11.560;2023-09-19T09:11:21;2.10;;;0.80;;
23496;SDS011;11925;48.122;11.560;2023-09-19T09:13:51;2.10;;;0.70;;
23496;SDS011;11925;48.122;11.560;2023-09-19T09:16:20;1.85;;;0.60;;
23496;SDS011;11925;48.122;11.560;2023-09-19T09:18:54;2.15;;;0.73;;
23496;SDS011;11925;48.122;11.560;2023-09-19T09:21:24;1.30;;;0.70;;
23496;SDS011;11925;48.122;11.560;2023-09-19T09:23:53;2.28;;;0.80;;
23496;SDS011;11925;48.122;11.560;2023-09-19T09:29:13;2.88;;;0.98;;
23496;SDS011;11925;48.122;11.560;2023-09-19T09:31:47;1.83;;;1.02;;
23496;SDS011;11925;48.122;11.560;2023-09-19T09:34:17;2.78;;;1.20;;
23496;SDS011;11925;48.122;11.560;2023-09-19T09:36:47;2.28;;;1.20;;
23496;SDS011;11925;48.122;11.560;2023-09-19T09:39:29;2.08;;;0.95;;
23496;SDS011;11925;48.122;11.560;2023-09-19T09:41:59;2.20;;;1.27;;
23496;SDS011;11925;48.122;11.560;2023-09-19T09:44:33;3.75;;;0.80;;
23496;SDS011;11925;48.122;11.560;2023-09-19T09:47:02;2.13;;;1.00;;
23496;SDS011;11925;48.122;11.560;2023-09-19T09:49:49;2.00;;;0.95;;
23496;SDS011;11925;48.122;11.560;2023-09-19T09:52:44;2.13;;;0.90;;
23496;SDS011;11925;48.122;11.560;2023-09-19T09:55:13;4.53;;;0.80;;
23496;SDS011;11925;48.122;11.560;2023-09-19T09:57:41;2.75;;;0.98;;
23496;SDS011;11925;48.122;11.560;2023-09-19T10:00:11;2.45;;;0.80;;
23496;SDS011;11925;48.122;11.560;2023-09-19T10:02:48;1.85;;;0.73;;
23496;SDS011;11925;48.122;11.560;2023-09-19T10:05:19;3.97;;;1.10;;
23496;SDS011;11925;48.122;11.560;2023-09-19T10:08:10;2.45;;;1.00;;
23496;SDS011;11925;48.122;11.560;2023-09-19T10:10:40;1.83;;;0.90;;
23496;SDS011;11925;48.122;11.560;2023-09-19T10:13:21;2.30;;;0.80;;
23496;SDS011;11925;48.122;11.560;2023-09-19T10:15:54;3.73;;;0.90;;
23496;SDS011;11925;48.122;11.560;2023-09-19T10:18:25;1.90;;;0.90;;
23496;SDS011;11925;48.122;11.560;2023-09-19T10:20:56;5.18;;;1.20;;
23496;SDS011;11925;48.122;11.560;2023-09-19T10:23:25;3.17;;;1.10;;
23496;SDS011;11925;48.122;11.560;2023-09-19T10:25:57;1.95;;;0.90;;
23496;SDS011;11925;48.122;11.560;2023-09-19T10:28:28;3.08;;;0.75;;
23496;SDS011;11925;48.122;11.560;2023-09-19T10:30:58;3.83;;;1.00;;
23496;SDS011;11925;48.122;11.560;2023-09-19T10:33:28;4.28;;;0.90;;
23496;SDS011;11925;48.122;11.560;2023-09-19T10:36:05;3.42;;;1.02;;
23496;SDS011;11925;48.122;11.560;2023-09-19T10:38:37;2.00;;;0.80;;
23496;SDS011;11925;48.122;11.560;2023-09-19T10:41:08;2.33;;;1.15;;
23496;SDS011;11925;48.122;11.560;2023-09-19T10:43:37;2.00;;;1.10;;
23496;SDS011;11925;48.122;11.560;2023-09-19T10:46:09;1.88;;;0.88;;
23496;SDS011;11925;48.122;11.560;2023-09-19T10:48:39;2.03;;;1.00;;
23496;SDS011;11925;48.122;11.560;2023-09-19T10:51:12;1.73;;;0.70;;
23496;SDS011;11925;48.122;11.560;2023-09-19T10:53:44;1.88;;;0.82;;
23496;SDS011;11925;48.122;11.560;2023-09-19T10:56:16;1.80;;;0.98;;
23496;SDS011;11925;48.122;11.560;2023-09-19T10:58:46;1.92;;;0.90;;
23496;SDS011;11925;48.122;11.560;2023-09-19T11:01:15;3.30;;;1.85;;
23496;SDS011;11925;48.122;11.560;2023-09-19T11:03:44;5.93;;;1.55;;
23496;SDS011;11925;48.122;11.560;2023-09-19T11:06:17;2.33;;;1.13;;
23496;SDS011;11925;48.122;11.560;2023-09-19T11:08:57;4.22;;;1.35;;
23496;SDS011;11925;48.122;11.560;2023-09-19T11:11:41;3.28;;;1.13;;
23496;SDS011;11925;48.122;11.560;2023-09-19T11:14:16;2.08;;;1.13;;
23496;SDS011;11925;48.122;11.560;2023-09-19T11:25:42;2.80;;;1.33;;
23496;SDS011;11925;48.122;11.560;2023-09-19T11:28:27;3.30;;;1.92;;
23496;SDS011;11925;48.122;11.560;2023-09-19T11:30:57;4.60;;;2.45;;
23496;SDS011;11925;48.122;11.560;2023-09-19T11:33:27;3.55;;;1.75;;
23496;SDS011;11925;48.122;11.560;2023-09-19T11:35:58;2.72;;;1.38;;
23496;SDS011;11925;48.122;11.560;2023-09-19T11:44:33;2.78;;;1.00;;
23496;SDS011;11925;48.122;11.560;2023-09-19T11:47:07;2.67;;;0.80;;
23496;SDS011;11925;48.122;11.560;2023-09-19T11:49:38;1.58;;;0.80;;
23496;SDS011;11925;48.122;11.560;2023-09-19T11:52:09;1.38;;;0.80;;
23496;SDS011;11925;48.122;11.560;2023-09-19T11:54:38;2.45;;;0.70;;
23496;SDS011;11925;48.122;11.560;2023-09-19T11:57:09;1.63;;;0.80;;
23496;SDS011;11925;48.122;11.560;2023-09-19T11:59:39;1.92;;;1.13;;
23496;SDS011;11925;48.122;11.560;2023-09-19T12:02:08;2.53;;;0.85;;
23496;SDS011;11925;48.122;11.560;2023-09-19T12:04:41;2.65;;;0.68;;
23496;SDS011;11925;48.122;11.560;2023-09-19T12:07:12;1.85;;;0.70;;
23496;SDS011;11925;48.122;11.560;2023-09-19T12:09:43;1.20;;;0.60;;
23496;SDS011;11925;48.122;11.560;2023-09-19T12:12:19;1.77;;;0.77;;
23496;SDS011;11925;48.122;11.560;2023-09-19T12:14:49;2.15;;;0.70;;
23496;SDS011;11925;48.122;11.560;2023-09-19T12:17:19;1.63;;;0.60;;
23496;SDS011;11925;48.122;11.560;2023-09-19T12:19:49;2.13;;;0.75;;
23496;SDS011;11925;48.122;11.560;2023-09-19T12:22:19;1.00;;;0.50;;
23496;SDS011;11925;48.122;11.560;2023-09-19T12:24:48;2.58;;;0.55;;
23496;SDS011;11925;48.122;11.560;2023-09-19T12:27:21;2.00;;;0.85;;
23496;SDS011;11925;48.122;11.560;2023-09-19T12:29:53;3.13;;;0.70;;
23496;SDS011;11925;48.122;11.560;2023-09-19T12:32:35;2.75;;;0.80;;
23496;SDS011;11925;48.122;11.560;2023-09-19T12:35:07;1.52;;;0.85;;
23496;SDS011;11925;48.122;11.560;2023-09-19T12:37:37;3.07;;;0.90;;
23496;SDS011;11925;48.122;11.560;2023-09-19T12:40:12;1.48;;;0.80;;
23496;SDS011;11925;48.122;11.560;2023-09-19T12:42:45;1.48;;;0.70;;
23496;SDS011;11925;48.122;11.560;2023-09-19T12:45:15;1.30;;;0.70;;
23496;SDS011;11925;48.122;11.560;2023-09-19T12:50:31;1.20;;;0.50;;
23496;SDS011;11925;48.122;11.560;2023-09-19T12:53:00;4.70;;;1.10;;
23496;SDS011;11925;48.122;11.560;2023-09-19T12:55:30;2.15;;;0.80;;
23496;SDS011;11925;48.122;11.560;2023-09-19T12:58:01;1.40;;;0.60;;
23496;SDS011;11925;48.122;11.560;2023-09-19T13:00:34;1.30;;;0.60;;
23496;SDS011;11925;48.122;11.560;2023-09-19T13:03:09;1.58;;;0.70;;
23496;SDS011;11925;48.122;11.560;2023-09-19T13:05:49;1.95;;;0.68;;
23496;SDS011;11925;48.122;11.560;2023-09-19T13:08:19;2.03;;;0.68;;
23496;SDS011;11925;48.122;11.560;2023-09-19T13:11:07;1.60;;;0.93;;
23496;SDS011;11925;48.122;11.560;2023-09-19T13:13:42;2.37;;;0.80;;
23496;SDS011;11925;48.122;11.560;2023-09-19T13:16:17;5.05;;;0.70;;
23496;SDS011;11925;48.122;11.560;2023-09-19T13:18:50;1.27;;;0.75;;
23496;SDS011;11925;48.122;11.560;2023-09-19T13:21:28;3.88;;;1.35;;
23496;SDS011;11925;48.122;11.560;2023-09-19T13:24:19;2.85;;;1.00;;
23496;SDS011;11925;48.122;11.560;2023-09-19T13:26:48;3.55;;;0.90;;
23496;SDS011;11925;48.122;11.560;2023-09-19T13:29:17;2.40;;;0.68;;
23496;SDS011;11925;48.122;11.560;2023-09-19T13:31:47;3.28;;;1.08;;
23496;SDS011;11925;48.122;11.560;2023-09-19T13:34:16;3.15;;;0.80;;
23496;SDS011;11925;48.122;11.560;2023-09-19T13:36:45;2.63;;;1.10;;
23496;SDS011;11925;48.122;11.560;2023-09-19T13:39:15;4.18;;;2.22;;
23496;SDS011;11925;48.122;11.560;2023-09-19T13:41:44;6.68;;;3.42;;
23496;SDS011;11925;48.122;11.560;2023-09-19T13:44:13;7.18;;;3.53;;
23496;SDS011;11925;48.122;11.560;2023-09-19T13:46:43;4.60;;;2.40;;
23496;SDS011;11925;48.122;11.560;2023-09-19T13:49:15;7.88;;;2.60;;
23496;SDS011;11925;48.122;11.560;2023-09-19T13:51:47;7.22;;;4.10;;
23496;SDS011;11925;48.122;11.560;2023-09-19T13:54:16;6.60;;;3.13;;
23496;SDS011;11925;48.122;11.560;2023-09-19T13:56:44;5.03;;;2.58;;
23496;SDS011;11925;48.122;11.560;2023-09-19T13:59:13;3.40;;;2.00;;
23496;SDS011;11925;48.122;11.560;2023-09-19T14:01:42;2.53;;;1.50;;
23496;SDS011;11925;48.122;11.560;2023-09-19T14:04:10;2.47;;;1.05;;
23496;SDS011;11925;48.122;11.560;2023-09-19T14:06:43;2.85;;;1.17;;
23496;SDS011;11925;48.122;11.560;2023-09-19T14:09:12;4.82;;;1.08;;
23496;SDS011;11925;48.122;11.560;2023-09-19T14:14:13;1.90;;;0.85;;
23496;SDS011;11925;48.122;11.560;2023-09-19T14:16:42;2.63;;;1.08;;
23496;SDS011;11925;48.122;11.560;2023-09-19T14:19:11;1.67;;;0.70;;
23496;SDS011;11925;48.122;11.560;2023-09-19T14:21:43;2.08;;;0.70;;
23496;SDS011;11925;48.122;11.560;2023-09-19T14:24:16;1.73;;;0.80;;
23496;SDS011;11925;48.122;11.560;2023-09-19T14:26:44;3.15;;;0.80;;
23496;SDS011;11925;48.122;11.560;2023-09-19T14:29:14;1.27;;;0.70;;
23496;SDS011;11925;48.122;11.560;2023-09-19T14:31:42;5.00;;;0.60;;
23496;SDS011;11925;48.122;11.560;2023-09-19T14:34:11;1.63;;;0.65;;
23496;SDS011;11925;48.122;11.560;2023-09-19T14:36:42;0.88;;;0.60;;
23496;SDS011;11925;48.122;11.560;2023-09-19T14:39:11;1.48;;;0.50;;
23496;SDS011;11925;48.122;11.560;2023-09-19T14:41:40;2.47;;;0.80;;
23496;SDS011;11925;48.122;11.560;2023-09-19T14:44:08;1.65;;;0.60;;
23496;SDS011;11925;48.122;11.560;2023-09-19T14:46:38;1.02;;;0.63;;
23496;SDS011;11925;48.122;11.560;2023-09-19T14:49:09;1.88;;;0.50;;
23496;SDS011;11925;48.122;11.560;2023-09-19T14:51:37;1.33;;;0.70;;
23496;SDS011;11925;48.122;11.560;2023-09-19T14:54:08;1.15;;;0.60;;
23496;SDS011;11925;48.122;11.560;2023-09-19T14:56:37;1.70;;;0.60;;
23496;SDS011;11925;48.122;11.560;2023-09-19T14:59:09;1.77;;;0.70;;
23496;SDS011;11925;48.122;11.560;2023-09-19T15:01:39;2.25;;;0.90;;
23496;SDS011;11925;48.122;11.560;2023-09-19T15:04:08;1.88;;;0.75;;
23496;SDS011;11925;48.122;11.560;2023-09-19T15:06:37;4.53;;;0.73;;
23496;SDS011;11925;48.122;11.560;2023-09-19T15:09:06;1.10;;;0.70;;
23496;SDS011;11925;48.122;11.560;2023-09-19T15:11:37;2.95;;;0.80;;
23496;SDS011;11925;48.122;11.560;2023-09-19T15:14:06;1.85;;;0.90;;
23496;SDS011;11925;48.122;11.560;2023-09-19T15:16:34;3.08;;;1.10;;
23496;SDS011;11925;48.122;11.560;2023-09-19T15:19:03;1.85;;;1.00;;
23496;SDS011;11925;48.122;11.560;2023-09-19T15:21:33;1.52;;;0.82;;
23496;SDS011;11925;48.122;11.560;2023-09-19T15:24:04;1.17;;;0.70;;
23496;SDS011;11925;48.122;11.560;2023-09-19T15:26:37;2.35;;;1.05;;